createdAt,value
2022-11-28T00:01:30.465Z,28.20
2022-11-28T00:03:57.626Z,29.58
2022-11-28T00:06:25.483Z,28.10
2022-11-28T00:08:52.558Z,29.58
2022-11-28T00:11:19.665Z,28.02
2022-11-28T00:13:46.686Z,30.55
2022-11-28T00:16:18.439Z,34.97
2022-11-28T00:18:45.413Z,29.48
2022-11-28T00:21:13.889Z,32.10
2022-11-28T00:23:42.253Z,28.88
2022-11-28T00:26:20.094Z,30.45
2022-11-28T00:28:47.343Z,30.77
2022-11-28T00:31:19.549Z,29.38
2022-11-28T00:36:14.040Z,30.83
2022-11-28T00:38:41.174Z,29.77
2022-11-28T00:41:16.659Z,29.95
2022-11-28T00:43:44.877Z,28.83
2022-11-28T00:46:13.462Z,29.55
2022-11-28T00:48:40.689Z,30.10
2022-11-28T00:51:13.581Z,32.67
2022-11-28T00:53:42.688Z,27.50
2022-11-28T00:56:12.767Z,30.40
2022-11-28T00:58:40.333Z,26.92
2022-11-28T01:01:12.073Z,29.77
2022-11-28T01:03:39.695Z,27.88
2022-11-28T01:06:08.351Z,29.02
2022-11-28T01:08:35.727Z,29.67
2022-11-28T01:11:02.966Z,27.20
2022-11-28T01:13:30.363Z,31.05
2022-11-28T01:15:58.838Z,27.98
2022-11-28T01:18:25.935Z,26.95
2022-11-28T01:20:52.779Z,24.77
2022-11-28T01:23:19.694Z,29.65
2022-11-28T01:25:46.525Z,24.08
2022-11-28T01:28:13.324Z,24.30
2022-11-28T01:30:40.272Z,28.85
2022-11-28T01:33:07.113Z,27.30
2022-11-28T01:35:33.954Z,27.83
2022-11-28T01:38:00.895Z,23.48
2022-11-28T01:40:27.748Z,25.42
2022-11-28T01:42:54.613Z,24.10
2022-11-28T01:45:30.810Z,25.70
2022-11-28T01:48:02.060Z,21.48
2022-11-28T01:50:31.501Z,21.30
2022-11-28T01:53:01.875Z,22.75
2022-11-28T01:55:34.963Z,23.98
2022-11-28T01:58:01.974Z,25.10
2022-11-28T02:00:28.950Z,23.85
2022-11-28T02:03:25.045Z,25.63
2022-11-28T02:05:52.963Z,26.65
2022-11-28T02:08:19.991Z,26.70
2022-11-28T02:10:55.967Z,23.92
2022-11-28T02:13:44.224Z,24.40
2022-11-28T02:16:29.800Z,24.80
2022-11-28T02:19:18.549Z,25.85
2022-11-28T02:22:08.633Z,22.25
2022-11-28T02:24:47.630Z,23.95
2022-11-28T02:27:27.615Z,23.95
2022-11-28T02:30:16.056Z,23.80
2022-11-28T02:32:52.216Z,26.52
2022-11-28T02:35:31.414Z,23.13
2022-11-28T02:38:19.313Z,24.38
2022-11-28T02:40:55.536Z,27.60
2022-11-28T02:43:38.476Z,24.92
2022-11-28T02:46:20.658Z,24.20
2022-11-28T02:48:58.574Z,23.48
2022-11-28T02:51:41.193Z,23.48
2022-11-28T02:54:11.844Z,23.63
2022-11-28T02:56:38.677Z,25.98
2022-11-28T02:59:32.013Z,25.17
2022-11-28T03:02:01.068Z,26.75
2022-11-28T03:04:52.610Z,19.73
2022-11-28T03:08:00.640Z,23.25
2022-11-28T03:10:58.731Z,24.73
2022-11-28T03:13:46.041Z,25.80
2022-11-28T03:16:37.903Z,26.52
2022-11-28T03:19:22.411Z,24.60
2022-11-28T03:22:07.444Z,27.13
2022-11-28T03:25:01.300Z,27.48
2022-11-28T03:27:37.583Z,28.80
2022-11-28T03:30:19.665Z,26.48
2022-11-28T03:32:50.779Z,29.50
2022-11-28T03:35:21.951Z,28.52
2022-11-28T03:37:54.380Z,24.58
2022-11-28T03:40:26.559Z,28.58
2022-11-28T03:45:42.415Z,25.23
2022-11-28T03:48:21.810Z,26.73
2022-11-28T03:51:02.517Z,27.75
2022-11-28T03:53:45.790Z,28.77
2022-11-28T03:56:28.949Z,26.90
2022-11-28T03:59:07.638Z,30.25
2022-11-28T04:01:56.152Z,29.83
2022-11-28T04:04:43.216Z,27.63
2022-11-28T04:07:48.769Z,25.35
2022-11-28T04:10:33.765Z,24.90
2022-11-28T04:13:12.527Z,27.75
2022-11-28T04:15:54.587Z,24.92
2022-11-28T04:18:24.412Z,26.70
2022-11-28T04:21:18.246Z,26.15
2022-11-28T04:23:47.088Z,25.42
2022-11-28T04:26:38.816Z,24.05
2022-11-28T04:29:10.526Z,27.67
2022-11-28T04:31:39.564Z,19.08
2022-11-28T04:34:10.194Z,27.92
2022-11-28T04:36:40.346Z,27.73
2022-11-28T04:39:13.102Z,30.02
2022-11-28T04:41:45.454Z,28.58
2022-11-28T04:44:44.303Z,29.77
2022-11-28T04:47:11.871Z,29.20
2022-11-28T04:49:39.532Z,27.02
2022-11-28T04:52:28.113Z,24.70
2022-11-28T04:55:04.003Z,26.83
2022-11-28T04:57:36.774Z,26.92
2022-11-28T05:00:18.045Z,30.63
2022-11-28T05:02:46.767Z,25.27
2022-11-28T05:05:22.988Z,28.00
2022-11-28T05:07:49.921Z,28.85
2022-11-28T05:10:18.035Z,30.20
2022-11-28T05:12:45.046Z,28.00
2022-11-28T05:15:12.119Z,23.80
2022-11-28T05:17:42.206Z,26.50
2022-11-28T05:20:09.756Z,25.75
2022-11-28T05:22:36.592Z,27.80
2022-11-28T05:25:03.625Z,27.38
2022-11-28T05:27:30.422Z,23.85
2022-11-28T05:29:57.233Z,27.45
2022-11-28T05:32:24.086Z,27.33
2022-11-28T05:34:50.941Z,27.33
2022-11-28T05:37:17.764Z,28.73
2022-11-28T05:39:44.901Z,27.00
2022-11-28T05:42:12.055Z,27.27
2022-11-28T05:44:39.239Z,29.30
2022-11-28T05:47:06.097Z,26.65
2022-11-28T05:49:32.947Z,24.02
2022-11-28T05:52:00.149Z,26.90
2022-11-28T05:54:26.974Z,28.70
2022-11-28T05:56:53.875Z,25.83
2022-11-28T05:59:20.671Z,24.13
2022-11-28T06:01:47.521Z,25.45
2022-11-28T06:04:14.427Z,25.88
2022-11-28T06:06:41.328Z,27.80
2022-11-28T06:09:08.414Z,25.83
2022-11-28T06:11:35.899Z,25.48
2022-11-28T06:14:03.413Z,26.98
2022-11-28T06:16:31.289Z,25.38
2022-11-28T06:19:03.532Z,28.00
2022-11-28T06:21:31.875Z,25.67
2022-11-28T06:24:00.207Z,26.08
2022-11-28T06:26:28.325Z,23.42
2022-11-28T06:28:58.542Z,22.02
2022-11-28T06:31:31.108Z,24.23
2022-11-28T06:33:58.611Z,28.08
2022-11-28T06:36:26.470Z,27.15
2022-11-28T06:38:54.388Z,25.80
2022-11-28T06:41:22.801Z,25.38
2022-11-28T06:43:50.043Z,23.55
2022-11-28T06:46:19.982Z,24.23
2022-11-28T06:48:49.179Z,23.77
2022-11-28T06:51:16.641Z,25.98
2022-11-28T06:53:43.553Z,27.73
2022-11-28T06:56:14.219Z,26.98
2022-11-28T06:58:41.947Z,30.02
2022-11-28T07:01:17.381Z,24.20
2022-11-28T07:03:44.799Z,24.58
2022-11-28T07:06:13.283Z,24.15
2022-11-28T07:08:40.933Z,25.95
2022-11-28T07:11:12.295Z,27.35
2022-11-28T07:13:40.570Z,27.73
2022-11-28T07:16:08.974Z,26.58
2022-11-28T07:18:35.963Z,30.02
2022-11-28T07:21:02.855Z,28.70
2022-11-28T07:23:29.782Z,26.13
2022-11-28T07:26:04.418Z,25.20
2022-11-28T07:28:31.797Z,34.08
2022-11-28T07:31:05.675Z,26.17
2022-11-28T07:33:33.847Z,28.00
2022-11-28T07:36:11.353Z,27.77
2022-11-28T07:38:38.158Z,26.80
2022-11-28T07:41:05.700Z,24.33
2022-11-28T07:43:32.639Z,26.45
2022-11-28T07:46:01.548Z,28.42
2022-11-28T07:48:28.647Z,26.98
2022-11-28T07:50:55.461Z,25.42
2022-11-28T07:53:22.307Z,27.73
2022-11-28T07:55:49.141Z,25.58
2022-11-28T07:58:15.991Z,28.40
2022-11-28T08:00:43.199Z,24.50
2022-11-28T08:03:10.171Z,29.42
2022-11-28T08:05:37.047Z,26.73
2022-11-28T08:08:04.107Z,25.30
2022-11-28T08:10:30.991Z,26.17
2022-11-28T08:12:57.975Z,26.80
2022-11-28T08:15:24.925Z,26.40
2022-11-28T08:17:51.878Z,25.63
2022-11-28T08:20:18.855Z,23.95
2022-11-28T08:22:45.704Z,25.45
2022-11-28T08:25:12.527Z,24.25
2022-11-28T08:27:39.695Z,24.40
2022-11-28T08:30:07.372Z,23.52
2022-11-28T08:32:34.216Z,23.15
2022-11-28T08:35:01.044Z,24.00
2022-11-28T08:37:28.997Z,22.05
2022-11-28T08:39:55.762Z,25.98
2022-11-28T08:42:22.594Z,26.23
2022-11-28T08:44:49.837Z,25.90
2022-11-28T08:47:16.714Z,23.55
2022-11-28T08:49:43.738Z,22.25
2022-11-28T08:52:11.148Z,26.40
2022-11-28T08:54:38.162Z,23.33
2022-11-28T08:57:05.489Z,22.27
2022-11-28T08:59:32.329Z,23.55
2022-11-28T09:01:59.123Z,22.73
2022-11-28T09:04:26.194Z,23.45
2022-11-28T09:06:53.389Z,24.27
2022-11-28T09:09:20.492Z,22.90
2022-11-28T09:11:47.429Z,20.35
2022-11-28T09:14:14.241Z,22.95
2022-11-28T09:16:41.554Z,22.08
2022-11-28T09:19:10.632Z,22.23
2022-11-28T09:21:37.936Z,20.08
2022-11-28T09:24:05.425Z,22.05
2022-11-28T09:26:33.371Z,21.95
2022-11-28T09:29:00.458Z,21.45
2022-11-28T09:31:27.666Z,21.13
2022-11-28T09:33:54.722Z,18.13
2022-11-28T09:36:23.841Z,21.42
2022-11-28T09:38:51.642Z,17.02
2022-11-28T09:41:24.365Z,20.27
2022-11-28T09:43:55.043Z,20.40
2022-11-28T09:46:29.893Z,19.20
2022-11-28T09:49:01.630Z,20.70
2022-11-28T09:51:40.859Z,38.47
2022-11-28T09:54:18.795Z,31.63
2022-11-28T09:56:50.450Z,19.98
2022-11-28T09:59:29.168Z,20.05
2022-11-28T10:02:26.434Z,17.00
2022-11-28T10:05:02.683Z,18.13
2022-11-28T10:07:38.154Z,17.92
2022-11-28T10:10:22.499Z,16.02
2022-11-28T10:13:16.291Z,17.75
2022-11-28T10:16:06.160Z,17.25
2022-11-28T10:18:54.870Z,18.70
2022-11-28T10:21:38.611Z,19.95
2022-11-28T10:24:23.128Z,29.45
2022-11-28T10:26:57.744Z,19.33
2022-11-28T10:29:41.023Z,15.57
2022-11-28T10:32:21.775Z,16.70
2022-11-28T10:35:13.840Z,15.55
2022-11-28T10:37:41.084Z,15.70
2022-11-28T10:40:32.923Z,14.73
2022-11-28T10:43:04.726Z,16.15
2022-11-28T10:45:41.640Z,17.80
2022-11-28T10:48:40.333Z,15.70
2022-11-28T10:51:29.633Z,18.45
2022-11-28T10:54:09.743Z,17.02
2022-11-28T10:56:49.520Z,22.35
2022-11-28T10:59:33.300Z,17.67
2022-11-28T11:02:04.024Z,21.15
2022-11-28T11:04:33.813Z,15.55
2022-11-28T11:07:29.950Z,16.27
2022-11-28T11:10:19.613Z,16.92
2022-11-28T11:12:47.368Z,15.70
2022-11-28T11:15:19.077Z,16.23
2022-11-28T11:17:46.159Z,24.83
2022-11-28T11:20:36.128Z,18.73
2022-11-28T11:23:12.432Z,16.90
2022-11-28T11:25:48.151Z,15.57
2022-11-28T11:28:26.815Z,16.45
2022-11-28T11:31:15.345Z,17.77
2022-11-28T11:33:43.368Z,16.27
2022-11-28T11:36:28.951Z,15.88
2022-11-28T11:39:11.099Z,16.15
2022-11-28T11:41:43.318Z,18.40
2022-11-28T11:46:53.138Z,16.40
2022-11-28T11:49:36.380Z,18.45
2022-11-28T11:52:13.247Z,15.15
2022-11-28T11:54:53.821Z,15.88
2022-11-28T11:57:33.133Z,17.77
2022-11-28T12:00:10.969Z,17.48
2022-11-28T12:02:45.402Z,15.15
2022-11-28T12:06:06.536Z,12.73
2022-11-28T12:08:51.126Z,13.30
2022-11-28T12:11:32.128Z,13.02
2022-11-28T12:14:10.371Z,13.60
2022-11-28T12:16:51.521Z,12.95
2022-11-28T12:19:46.139Z,13.90
2022-11-28T12:22:20.885Z,14.07
2022-11-28T12:25:01.027Z,15.50
2022-11-28T12:27:53.647Z,16.90
2022-11-28T12:30:53.812Z,15.88
2022-11-28T12:33:34.435Z,15.35
2022-11-28T12:36:16.751Z,13.55
2022-11-28T12:41:53.517Z,15.38
2022-11-28T12:44:41.415Z,18.13
2022-11-28T12:47:48.829Z,21.45
2022-11-28T12:50:39.607Z,20.13
2022-11-28T12:53:27.454Z,18.35
2022-11-28T12:56:39.026Z,21.65
2022-11-28T12:59:22.866Z,15.70
2022-11-28T13:02:16.244Z,14.40
2022-11-28T13:04:58.343Z,12.63
2022-11-28T13:07:35.046Z,15.13
2022-11-28T13:10:23.331Z,14.52
2022-11-28T13:13:19.868Z,12.15
2022-11-28T13:16:10.837Z,13.65
2022-11-28T13:18:46.003Z,14.60
2022-11-28T13:21:41.584Z,16.45
2022-11-28T13:24:23.606Z,15.20
2022-11-28T13:27:05.665Z,15.50
2022-11-28T13:29:43.662Z,13.85
2022-11-28T13:32:37.944Z,15.77
2022-11-28T13:35:06.063Z,17.27
2022-11-28T13:40:45.695Z,15.52
2022-11-28T13:43:41.734Z,16.05
2022-11-28T13:46:10.003Z,18.08
2022-11-28T13:51:30.853Z,13.30
2022-11-28T13:54:17.605Z,14.40
2022-11-28T13:57:28.081Z,12.85
2022-11-28T14:00:02.413Z,12.43
2022-11-28T14:03:00.515Z,15.15
2022-11-28T14:05:28.790Z,14.43
2022-11-28T14:07:57.192Z,14.52
2022-11-28T14:10:58.025Z,11.15
2022-11-28T14:13:37.209Z,15.43
2022-11-28T14:16:25.452Z,11.57
2022-11-28T14:19:18.233Z,13.55
2022-11-28T14:22:17.944Z,13.23
2022-11-28T14:24:47.810Z,13.82
2022-11-28T14:27:29.001Z,12.68
2022-11-28T14:29:57.787Z,16.85
2022-11-28T14:32:33.988Z,13.25
2022-11-28T14:35:01.752Z,12.57
2022-11-28T14:37:29.396Z,14.15
2022-11-28T14:39:57.782Z,15.98
2022-11-28T14:42:58.707Z,15.55
2022-11-28T14:45:42.112Z,15.02
2022-11-28T14:48:19.721Z,15.15
2022-11-28T14:50:49.480Z,20.55
2022-11-28T14:53:34.837Z,16.92
2022-11-28T14:56:13.854Z,16.02
2022-11-28T14:58:49.035Z,18.58
2022-11-28T15:01:33.947Z,16.05
2022-11-28T15:04:11.547Z,17.98
2022-11-28T15:06:39.492Z,19.23
2022-11-28T15:09:25.689Z,25.90
2022-11-28T15:12:19.331Z,19.35
2022-11-28T15:14:52.318Z,24.10
2022-11-28T15:17:23.086Z,28.48
2022-11-28T15:19:51.024Z,34.25
2022-11-28T15:22:33.000Z,29.30
2022-11-28T15:25:00.258Z,29.15
2022-11-28T15:27:28.398Z,28.50
2022-11-28T15:29:57.136Z,32.08
2022-11-28T15:32:26.086Z,35.63
2022-11-28T15:35:05.429Z,36.70
2022-11-28T15:37:36.681Z,28.00
2022-11-28T15:40:06.146Z,19.58
2022-11-28T15:42:35.301Z,20.67
2022-11-28T15:45:12.152Z,19.48
2022-11-28T15:47:39.603Z,16.40
2022-11-28T15:50:20.064Z,16.95
2022-11-28T15:53:17.779Z,17.98
2022-11-28T15:55:45.065Z,16.98
2022-11-28T15:58:23.613Z,17.95
2022-11-28T16:01:18.155Z,17.83
2022-11-28T16:04:06.664Z,21.58
2022-11-28T16:06:37.080Z,18.80
2022-11-28T16:09:07.437Z,16.85
2022-11-28T16:11:36.400Z,21.02
2022-11-28T16:14:11.057Z,23.40
2022-11-28T16:16:39.197Z,19.70
2022-11-28T16:19:09.009Z,18.55
2022-11-28T16:21:45.119Z,18.60
2022-11-28T16:24:51.545Z,19.02
2022-11-28T16:27:30.251Z,21.45
2022-11-28T16:29:57.698Z,19.38
2022-11-28T16:32:38.092Z,19.15
2022-11-28T16:35:08.519Z,18.00
2022-11-28T16:37:35.469Z,25.67
2022-11-28T16:40:07.941Z,20.80
2022-11-28T16:42:35.640Z,20.60
2022-11-28T16:45:18.722Z,21.23
2022-11-28T16:47:45.846Z,18.92
2022-11-28T16:50:24.537Z,20.42
2022-11-28T16:52:52.980Z,24.83
2022-11-28T16:55:29.024Z,20.13
2022-11-28T16:58:07.307Z,21.88
2022-11-28T17:00:35.286Z,19.13
2022-11-28T17:03:03.372Z,18.42
2022-11-28T17:05:31.044Z,21.70
2022-11-28T17:07:58.052Z,19.23
2022-11-28T17:10:27.581Z,17.80
2022-11-28T17:12:54.772Z,17.63
2022-11-28T17:15:23.668Z,19.27
2022-11-28T17:17:50.586Z,20.65
2022-11-28T17:20:17.951Z,18.20
2022-11-28T17:22:47.839Z,21.13
2022-11-28T17:25:20.296Z,18.50
2022-11-28T17:27:48.597Z,22.80
2022-11-28T17:30:18.668Z,20.05
2022-11-28T17:32:52.001Z,24.73
2022-11-28T17:35:23.685Z,25.90
2022-11-28T17:37:50.599Z,25.15
2022-11-28T17:40:37.430Z,29.02
2022-11-28T17:43:04.956Z,24.90
2022-11-28T17:45:35.394Z,27.40
2022-11-28T17:48:02.293Z,25.08
2022-11-28T17:50:29.082Z,24.83
2022-11-28T17:52:55.895Z,26.85
2022-11-28T17:55:22.760Z,25.20
2022-11-28T17:57:49.591Z,23.33
2022-11-28T18:00:17.047Z,29.90
2022-11-28T18:02:43.984Z,39.80
2022-11-28T18:05:10.861Z,35.78
2022-11-28T18:07:38.108Z,38.60
2022-11-28T18:10:05.440Z,24.38
2022-11-28T18:12:32.513Z,27.75
2022-11-28T18:15:01.017Z,24.20
2022-11-28T18:17:27.900Z,24.33
2022-11-28T18:19:57.776Z,21.60
2022-11-28T18:22:24.984Z,27.92
2022-11-28T18:24:51.791Z,26.45
2022-11-28T18:27:18.619Z,27.40
2022-11-28T18:29:45.732Z,25.20
2022-11-28T18:32:12.761Z,25.88
2022-11-28T18:34:39.668Z,24.40
2022-11-28T18:37:06.501Z,22.35
2022-11-28T18:39:34.215Z,26.55
2022-11-28T18:42:01.124Z,26.75
2022-11-28T18:44:28.438Z,33.47
2022-11-28T18:46:55.317Z,30.08
2022-11-28T18:49:22.290Z,29.02
2022-11-28T18:51:49.199Z,50.33
2022-11-28T18:54:20.833Z,39.35
2022-11-28T18:56:48.978Z,40.33
2022-11-28T18:59:15.789Z,36.15
2022-11-28T19:01:43.652Z,32.88
2022-11-28T19:04:12.444Z,40.90
2022-11-28T19:06:40.595Z,40.03
2022-11-28T19:09:10.480Z,29.38
2022-11-28T19:11:37.919Z,25.23
2022-11-28T19:14:06.883Z,24.67
2022-11-28T19:16:37.270Z,26.25
2022-11-28T19:19:06.294Z,23.88
2022-11-28T19:21:35.069Z,24.77
2022-11-28T19:24:02.557Z,23.05
2022-11-28T19:26:31.282Z,24.20
2022-11-28T19:28:59.978Z,25.17
2022-11-28T19:31:29.563Z,25.45
2022-11-28T19:34:01.344Z,25.92
2022-11-28T19:38:56.509Z,22.48
2022-11-28T19:41:23.856Z,25.30
2022-11-28T19:43:51.678Z,27.48
2022-11-28T19:46:19.035Z,26.50
2022-11-28T19:48:46.073Z,27.08
2022-11-28T19:51:14.317Z,25.63
2022-11-28T19:53:43.617Z,24.85
2022-11-28T19:56:19.083Z,24.48
2022-11-28T19:58:46.428Z,27.23
2022-11-28T20:01:21.353Z,26.05
2022-11-28T20:03:49.619Z,29.65
2022-11-28T20:06:23.008Z,53.42
2022-11-28T20:08:51.489Z,54.42
2022-11-28T20:11:21.589Z,43.08
2022-11-28T20:13:49.359Z,33.30
2022-11-28T20:16:17.891Z,24.35
2022-11-28T20:18:45.739Z,23.75
2022-11-28T20:21:17.642Z,27.48
2022-11-28T20:23:45.995Z,27.10
2022-11-28T20:26:14.334Z,24.67
2022-11-28T20:28:43.076Z,21.73
2022-11-28T20:31:37.485Z,29.80
2022-11-28T20:34:05.411Z,45.40
2022-11-28T20:36:32.357Z,37.90
2022-11-28T20:38:59.633Z,36.53
2022-11-28T20:41:27.885Z,36.00
2022-11-28T20:43:55.049Z,25.23
2022-11-28T20:46:30.399Z,25.98
2022-11-28T20:48:59.576Z,28.95
2022-11-28T20:51:28.153Z,29.85
2022-11-28T20:53:56.593Z,27.52
2022-11-28T20:56:26.420Z,23.73
2022-11-28T20:58:53.275Z,25.92
2022-11-28T21:01:25.356Z,25.95
2022-11-28T21:06:19.531Z,30.85
2022-11-28T21:08:46.419Z,28.45
2022-11-28T21:11:36.580Z,25.83
2022-11-28T21:14:05.561Z,23.15
2022-11-28T21:16:33.714Z,23.33
2022-11-28T21:19:09.452Z,21.48
2022-11-28T21:21:39.665Z,23.52
2022-11-28T21:24:12.319Z,21.15
2022-11-28T21:26:45.099Z,22.42
2022-11-28T21:29:14.866Z,18.80
2022-11-28T21:31:44.423Z,21.42
2022-11-28T21:34:14.618Z,20.27
2022-11-28T21:36:42.318Z,20.95
2022-11-28T21:39:13.791Z,19.05
2022-11-28T21:41:40.777Z,17.50
2022-11-28T21:44:07.753Z,20.67
2022-11-28T21:46:34.682Z,20.40
2022-11-28T21:49:02.045Z,18.48
2022-11-28T21:51:29.003Z,15.82
2022-11-28T21:53:59.201Z,18.25
2022-11-28T21:56:26.279Z,22.23
2022-11-28T21:58:53.155Z,16.13
2022-11-28T22:01:22.927Z,17.55
2022-11-28T22:03:50.050Z,20.58
2022-11-28T22:06:22.317Z,18.77
2022-11-28T22:08:49.947Z,20.77
2022-11-28T22:11:17.582Z,14.07
2022-11-28T22:13:46.090Z,17.10
2022-11-28T22:16:25.466Z,16.52
2022-11-28T22:18:54.524Z,21.25
2022-11-28T22:21:50.662Z,20.95
2022-11-28T22:24:09.288Z,23.20
2022-11-28T22:26:36.486Z,19.00
2022-11-28T22:29:04.200Z,22.00
2022-11-28T22:31:31.438Z,24.25
2022-11-28T22:33:58.536Z,19.05
2022-11-28T22:36:25.326Z,19.65
2022-11-28T22:38:57.190Z,19.10
2022-11-28T22:41:29.049Z,17.85
2022-11-28T22:43:59.598Z,15.40
2022-11-28T22:46:27.048Z,16.67
2022-11-28T22:48:53.946Z,15.00
2022-11-28T22:51:25.512Z,16.75
2022-11-28T22:53:57.247Z,17.45
2022-11-28T22:56:24.607Z,15.48
2022-11-28T22:58:51.496Z,15.25
2022-11-28T23:01:24.931Z,15.00
2022-11-28T23:03:52.374Z,14.13
2022-11-28T23:06:28.199Z,14.65
2022-11-28T23:08:56.038Z,13.40
2022-11-28T23:11:25.239Z,14.23
2022-11-28T23:13:52.946Z,14.90
2022-11-28T23:16:21.563Z,14.55
2022-11-28T23:18:51.325Z,15.75
2022-11-28T23:23:46.319Z,15.52
2022-11-28T23:26:19.330Z,12.63
2022-11-28T23:28:46.675Z,12.52
2022-11-28T23:31:24.617Z,13.60
2022-11-28T23:33:52.897Z,14.02
2022-11-28T23:36:28.497Z,13.32
2022-11-28T23:38:58.635Z,14.50
2022-11-28T23:41:26.901Z,10.70
2022-11-28T23:43:54.047Z,15.20
2022-11-28T23:46:21.827Z,12.95
2022-11-28T23:48:49.075Z,13.65
2022-11-28T23:51:18.492Z,11.73
2022-11-28T23:53:45.536Z,14.57
2022-11-28T23:56:21.069Z,11.55
2022-11-28T23:58:48.333Z,10.27
